sensor_id;sensor_type;location;lat;lon;timestamp;temperature;humidity
26703;DHT22;14316;51.074;3.704;2023-09-19T00:01:40;14.70;99.90
26703;DHT22;14316;51.074;3.704;2023-09-19T00:04:08;14.70;99.90
26703;DHT22;14316;51.074;3.704;2023-09-19T00:06:36;14.70;99.90
26703;DHT22;14316;51.074;3.704;2023-09-19T00:09:03;14.70;99.90
26703;DHT22;14316;51.074;3.704;2023-09-19T00:11:29;14.60;99.90
26703;DHT22;14316;51.074;3.704;2023-09-19T00:13:55;14.60;99.90
26703;DHT22;14316;51.074;3.704;2023-09-19T00:16:25;14.60;99.90
26703;DHT22;14316;51.074;3.704;2023-09-19T00:18:52;14.60;99.90
26703;DHT22;14316;51.074;3.704;2023-09-19T00:21:18;14.60;99.90
26703;DHT22;14316;51.074;3.704;2023-09-19T00:23:47;14.60;99.90
26703;DHT22;14316;51.074;3.704;2023-09-19T00:26:13;14.60;99.90
26703;DHT22;14316;51.074;3.704;2023-09-19T00:28:39;14.60;99.90
26703;DHT22;14316;51.074;3.704;2023-09-19T00:31:08;14.60;99.90
26703;DHT22;14316;51.074;3.704;2023-09-19T00:33:34;14.60;99.90
26703;DHT22;14316;51.074;3.704;2023-09-19T00:36:00;14.70;99.90
26703;DHT22;14316;51.074;3.704;2023-09-19T00:38:29;14.60;99.90
26703;DHT22;14316;51.074;3.704;2023-09-19T00:40:55;14.60;99.90
26703;DHT22;14316;51.074;3.704;2023-09-19T00:43:25;14.60;99.90
26703;DHT22;14316;51.074;3.704;2023-09-19T00:45:54;14.60;99.90
26703;DHT22;14316;51.074;3.704;2023-09-19T00:48:22;14.60;99.90
26703;DHT22;14316;51.074;3.704;2023-09-19T00:50:49;14.60;99.90
26703;DHT22;14316;51.074;3.704;2023-09-19T00:53:19;14.60;99.90
26703;DHT22;14316;51.074;3.704;2023-09-19T00:55:47;14.70;99.90
26703;DHT22;14316;51.074;3.704;2023-09-19T00:58:14;14.70;99.90
26703;DHT22;14316;51.074;3.704;2023-09-19T01:00:42;14.70;99.90
26703;DHT22;14316;51.074;3.704;2023-09-19T01:03:10;14.70;99.90
26703;DHT22;14316;51.074;3.704;2023-09-19T01:05:36;14.70;99.90
26703;DHT22;14316;51.074;3.704;2023-09-19T01:08:02;14.70;99.90
26703;DHT22;14316;51.074;3.704;2023-09-19T01:10:29;14.70;99.90
26703;DHT22;14316;51.074;3.704;2023-09-19T01:24:47;14.70;99.90
26703;DHT22;14316;51.074;3.704;2023-09-19T01:29:49;14.70;99.90
26703;DHT22;14316;51.074;3.704;2023-09-19T01:32:21;14.70;99.90
26703;DHT22;14316;51.074;3.704;2023-09-19T01:34:48;14.70;99.90
26703;DHT22;14316;51.074;3.704;2023-09-19T01:37:16;14.70;99.90
26703;DHT22;14316;51.074;3.704;2023-09-19T01:39:50;14.70;99.90
26703;DHT22;14316;51.074;3.704;2023-09-19T01:42:41;14.70;99.90
26703;DHT22;14316;51.074;3.704;2023-09-19T01:47:51;14.70;99.90
26703;DHT22;14316;51.074;3.704;2023-09-19T01:50:32;14.70;99.90
26703;DHT22;14316;51.074;3.704;2023-09-19T01:53:05;14.80;99.90
26703;DHT22;14316;51.074;3.704;2023-09-19T01:55:40;14.70;99.90
26703;DHT22;14316;51.074;3.704;2023-09-19T01:58:30;14.80;99.90
26703;DHT22;14316;51.074;3.704;2023-09-19T02:01:00;14.80;99.90
26703;DHT22;14316;51.074;3.704;2023-09-19T02:03:27;14.70;99.90
26703;DHT22;14316;51.074;3.704;2023-09-19T02:05:54;14.70;99.90
26703;DHT22;14316;51.074;3.704;2023-09-19T02:08:22;14.70;99.90
26703;DHT22;14316;51.074;3.704;2023-09-19T02:10:52;14.70;99.90
26703;DHT22;14316;51.074;3.704;2023-09-19T02:13:22;14.80;99.90
26703;DHT22;14316;51.074;3.704;2023-09-19T02:15:52;14.70;99.90
26703;DHT22;14316;51.074;3.704;2023-09-19T02:18:18;14.80;99.90
26703;DHT22;14316;51.074;3.704;2023-09-19T02:20:44;14.80;99.90
26703;DHT22;14316;51.074;3.704;2023-09-19T02:23:12;14.80;99.90
26703;DHT22;14316;51.074;3.704;2023-09-19T02:25:39;14.80;99.90
26703;DHT22;14316;51.074;3.704;2023-09-19T02:28:06;14.80;99.90
26703;DHT22;14316;51.074;3.704;2023-09-19T02:30:32;14.80;99.90
26703;DHT22;14316;51.074;3.704;2023-09-19T02:32:59;14.90;99.90
26703;DHT22;14316;51.074;3.704;2023-09-19T02:35:28;14.90;99.90
26703;DHT22;14316;51.074;3.704;2023-09-19T02:37:54;14.90;99.90
26703;DHT22;14316;51.074;3.704;2023-09-19T02:40:20;14.90;99.90
26703;DHT22;14316;51.074;3.704;2023-09-19T02:42:53;15.00;99.90
26703;DHT22;14316;51.074;3.704;2023-09-19T02:45:20;15.00;99.90
26703;DHT22;14316;51.074;3.704;2023-09-19T02:47:47;15.00;99.90
26703;DHT22;14316;51.074;3.704;2023-09-19T02:50:14;15.00;99.90
26703;DHT22;14316;51.074;3.704;2023-09-19T02:52:43;15.10;99.90
26703;DHT22;14316;51.074;3.704;2023-09-19T02:55:10;15.10;99.90
26703;DHT22;14316;51.074;3.704;2023-09-19T02:57:38;15.10;99.90
26703;DHT22;14316;51.074;3.704;2023-09-19T03:00:07;14.50;99.90
26703;DHT22;14316;51.074;3.704;2023-09-19T03:02:36;14.30;99.90
26703;DHT22;14316;51.074;3.704;2023-09-19T03:05:02;14.20;99.90
26703;DHT22;14316;51.074;3.704;2023-09-19T03:07:29;14.10;99.90
26703;DHT22;14316;51.074;3.704;2023-09-19T03:09:55;14.10;99.90
26703;DHT22;14316;51.074;3.704;2023-09-19T03:12:21;14.10;99.90
26703;DHT22;14316;51.074;3.704;2023-09-19T03:14:48;14.20;99.90
26703;DHT22;14316;51.074;3.704;2023-09-19T03:17:14;14.20;99.90
26703;DHT22;14316;51.074;3.704;2023-09-19T03:19:40;14.30;99.90
26703;DHT22;14316;51.074;3.704;2023-09-19T03:22:07;14.30;99.90
26703;DHT22;14316;51.074;3.704;2023-09-19T03:24:33;14.30;99.90
26703;DHT22;14316;51.074;3.704;2023-09-19T03:27:01;14.40;99.90
26703;DHT22;14316;51.074;3.704;2023-09-19T03:29:27;14.40;99.90
26703;DHT22;14316;51.074;3.704;2023-09-19T03:31:53;14.40;99.90
26703;DHT22;14316;51.074;3.704;2023-09-19T03:34:20;14.40;99.90
26703;DHT22;14316;51.074;3.704;2023-09-19T03:36:46;14.50;99.90
26703;DHT22;14316;51.074;3.704;2023-09-19T03:39:12;14.60;99.90
26703;DHT22;14316;51.074;3.704;2023-09-19T03:41:41;14.60;99.90
26703;DHT22;14316;51.074;3.704;2023-09-19T03:44:10;14.60;99.90
26703;DHT22;14316;51.074;3.704;2023-09-19T03:46:37;14.60;99.90
26703;DHT22;14316;51.074;3.704;2023-09-19T03:49:04;14.60;99.90
26703;DHT22;14316;51.074;3.704;2023-09-19T03:51:30;14.50;99.90
26703;DHT22;14316;51.074;3.704;2023-09-19T03:53:57;14.60;99.90
26703;DHT22;14316;51.074;3.704;2023-09-19T03:56:23;14.50;99.90
26703;DHT22;14316;51.074;3.704;2023-09-19T03:58:49;14.50;99.90
26703;DHT22;14316;51.074;3.704;2023-09-19T04:01:16;14.50;99.90
26703;DHT22;14316;51.074;3.704;2023-09-19T04:03:42;14.50;99.90
26703;DHT22;14316;51.074;3.704;2023-09-19T04:06:16;14.40;99.90
26703;DHT22;14316;51.074;3.704;2023-09-19T04:08:42;14.40;99.90
26703;DHT22;14316;51.074;3.704;2023-09-19T04:11:10;14.40;99.90
26703;DHT22;14316;51.074;3.704;2023-09-19T04:13:36;14.30;99.90
26703;DHT22;14316;51.074;3.704;2023-09-19T04:16:03;14.30;99.90
26703;DHT22;14316;51.074;3.704;2023-09-19T04:18:35;14.30;99.90
26703;DHT22;14316;51.074;3.704;2023-09-19T04:21:04;14.20;99.90
26703;DHT22;14316;51.074;3.704;2023-09-19T04:23:32;14.20;99.90
26703;DHT22;14316;51.074;3.704;2023-09-19T04:25:58;14.10;99.90
26703;DHT22;14316;51.074;3.704;2023-09-19T04:28:24;14.10;99.90
26703;DHT22;14316;51.074;3.704;2023-09-19T04:30:50;14.00;99.90
26703;DHT22;14316;51.074;3.704;2023-09-19T04:33:16;14.10;99.90
26703;DHT22;14316;51.074;3.704;2023-09-19T04:35:43;14.10;99.90
26703;DHT22;14316;51.074;3.704;2023-09-19T04:38:09;14.10;99.90
26703;DHT22;14316;51.074;3.704;2023-09-19T04:40:35;14.10;99.90
26703;DHT22;14316;51.074;3.704;2023-09-19T04:43:01;14.10;99.90
26703;DHT22;14316;51.074;3.704;2023-09-19T04:45:28;14.10;99.90
26703;DHT22;14316;51.074;3.704;2023-09-19T04:47:55;14.10;99.90
26703;DHT22;14316;51.074;3.704;2023-09-19T04:50:21;14.10;99.90
26703;DHT22;14316;51.074;3.704;2023-09-19T04:52:50;14.10;99.90
26703;DHT22;14316;51.074;3.704;2023-09-19T04:55:18;14.10;99.90
26703;DHT22;14316;51.074;3.704;2023-09-19T04:57:47;14.10;99.90
26703;DHT22;14316;51.074;3.704;2023-09-19T05:00:15;14.10;99.90
26703;DHT22;14316;51.074;3.704;2023-09-19T05:02:43;14.10;99.90
26703;DHT22;14316;51.074;3.704;2023-09-19T05:05:10;14.10;99.90
26703;DHT22;14316;51.074;3.704;2023-09-19T05:07:37;14.20;99.90
26703;DHT22;14316;51.074;3.704;2023-09-19T05:10:03;14.20;99.90
26703;DHT22;14316;51.074;3.704;2023-09-19T05:12:34;14.20;99.90
26703;DHT22;14316;51.074;3.704;2023-09-19T05:15:04;14.30;99.90
26703;DHT22;14316;51.074;3.704;2023-09-19T05:17:32;14.30;99.90
26703;DHT22;14316;51.074;3.704;2023-09-19T05:19:58;14.30;99.90
26703;DHT22;14316;51.074;3.704;2023-09-19T05:22:29;14.30;99.90
26703;DHT22;14316;51.074;3.704;2023-09-19T05:24:55;14.30;99.90
26703;DHT22;14316;51.074;3.704;2023-09-19T05:27:21;14.30;99.90
26703;DHT22;14316;51.074;3.704;2023-09-19T05:29:47;14.30;99.90
26703;DHT22;14316;51.074;3.704;2023-09-19T05:32:14;14.30;99.90
26703;DHT22;14316;51.074;3.704;2023-09-19T05:34:41;14.30;99.90
26703;DHT22;14316;51.074;3.704;2023-09-19T05:37:08;14.30;99.90
26703;DHT22;14316;51.074;3.704;2023-09-19T05:39:34;14.30;99.90
26703;DHT22;14316;51.074;3.704;2023-09-19T05:42:00;14.30;99.90
26703;DHT22;14316;51.074;3.704;2023-09-19T05:44:26;14.30;99.90
26703;DHT22;14316;51.074;3.704;2023-09-19T05:46:53;14.40;99.90
26703;DHT22;14316;51.074;3.704;2023-09-19T05:49:22;14.50;99.90
26703;DHT22;14316;51.074;3.704;2023-09-19T05:51:50;14.50;99.90
26703;DHT22;14316;51.074;3.704;2023-09-19T05:54:19;14.50;99.90
26703;DHT22;14316;51.074;3.704;2023-09-19T05:56:46;14.60;99.90
26703;DHT22;14316;51.074;3.704;2023-09-19T05:59:12;14.70;99.90
26703;DHT22;14316;51.074;3.704;2023-09-19T06:01:44;14.80;99.90
26703;DHT22;14316;51.074;3.704;2023-09-19T06:04:11;14.90;99.90
26703;DHT22;14316;51.074;3.704;2023-09-19T06:06:37;15.00;99.90
26703;DHT22;14316;51.074;3.704;2023-09-19T06:09:06;15.10;99.90
26703;DHT22;14316;51.074;3.704;2023-09-19T06:11:36;15.00;99.90
26703;DHT22;14316;51.074;3.704;2023-09-19T06:14:02;15.10;99.90
26703;DHT22;14316;51.074;3.704;2023-09-19T06:16:29;15.00;99.90
26703;DHT22;14316;51.074;3.704;2023-09-19T06:18:55;15.00;99.90
26703;DHT22;14316;51.074;3.704;2023-09-19T06:21:24;15.00;99.90
26703;DHT22;14316;51.074;3.704;2023-09-19T06:23:51;15.00;99.90
26703;DHT22;14316;51.074;3.704;2023-09-19T06:26:18;15.20;99.90
26703;DHT22;14316;51.074;3.704;2023-09-19T06:28:44;14.80;99.90
26703;DHT22;14316;51.074;3.704;2023-09-19T06:31:10;14.80;99.90
26703;DHT22;14316;51.074;3.704;2023-09-19T06:33:37;14.80;99.90
26703;DHT22;14316;51.074;3.704;2023-09-19T06:36:07;14.80;99.90
26703;DHT22;14316;51.074;3.704;2023-09-19T06:38:34;14.80;99.90
26703;DHT22;14316;51.074;3.704;2023-09-19T06:41:02;14.80;99.90
26703;DHT22;14316;51.074;3.704;2023-09-19T06:43:32;14.90;99.90
26703;DHT22;14316;51.074;3.704;2023-09-19T06:46:00;15.00;99.90
26703;DHT22;14316;51.074;3.704;2023-09-19T06:48:26;15.00;99.90
26703;DHT22;14316;51.074;3.704;2023-09-19T06:50:58;15.00;99.90
26703;DHT22;14316;51.074;3.704;2023-09-19T06:53:33;15.00;99.90
26703;DHT22;14316;51.074;3.704;2023-09-19T06:56:01;15.00;99.90
26703;DHT22;14316;51.074;3.704;2023-09-19T06:58:28;15.10;99.90
26703;DHT22;14316;51.074;3.704;2023-09-19T07:00:53;15.20;99.90
26703;DHT22;14316;51.074;3.704;2023-09-19T07:03:20;15.20;99.90
26703;DHT22;14316;51.074;3.704;2023-09-19T07:05:48;15.20;99.90
26703;DHT22;14316;51.074;3.704;2023-09-19T07:08:14;15.30;99.90
26703;DHT22;14316;51.074;3.704;2023-09-19T07:10:41;15.20;99.90
26703;DHT22;14316;51.074;3.704;2023-09-19T07:13:14;15.30;99.90
26703;DHT22;14316;51.074;3.704;2023-09-19T07:15:44;15.40;99.90
26703;DHT22;14316;51.074;3.704;2023-09-19T07:18:17;15.50;99.90
26703;DHT22;14316;51.074;3.704;2023-09-19T07:20:44;15.50;99.90
26703;DHT22;14316;51.074;3.704;2023-09-19T07:23:21;15.50;99.90
26703;DHT22;14316;51.074;3.704;2023-09-19T07:25:48;15.50;99.90
26703;DHT22;14316;51.074;3.704;2023-09-19T07:28:15;15.60;99.90
26703;DHT22;14316;51.074;3.704;2023-09-19T07:30:41;15.70;99.90
26703;DHT22;14316;51.074;3.704;2023-09-19T07:33:07;15.80;99.90
26703;DHT22;14316;51.074;3.704;2023-09-19T07:35:37;15.80;99.90
26703;DHT22;14316;51.074;3.704;2023-09-19T07:38:06;15.90;99.90
26703;DHT22;14316;51.074;3.704;2023-09-19T07:40:32;16.00;99.90
26703;DHT22;14316;51.074;3.704;2023-09-19T07:42:58;16.00;99.90
26703;DHT22;14316;51.074;3.704;2023-09-19T07:45:30;16.10;99.90
26703;DHT22;14316;51.074;3.704;2023-09-19T07:47:57;16.20;99.90
26703;DHT22;14316;51.074;3.704;2023-09-19T07:50:23;16.30;99.90
26703;DHT22;14316;51.074;3.704;2023-09-19T07:52:50;16.40;99.90
26703;DHT22;14316;51.074;3.704;2023-09-19T07:55:17;16.40;99.90
26703;DHT22;14316;51.074;3.704;2023-09-19T07:57:43;16.40;99.90
26703;DHT22;14316;51.074;3.704;2023-09-19T08:00:10;16.50;99.90
26703;DHT22;14316;51.074;3.704;2023-09-19T08:02:37;16.60;99.90
26703;DHT22;14316;51.074;3.704;2023-09-19T08:05:07;16.60;99.90
26703;DHT22;14316;51.074;3.704;2023-09-19T08:07:39;16.50;99.90
26703;DHT22;14316;51.074;3.704;2023-09-19T08:10:07;16.50;99.90
26703;DHT22;14316;51.074;3.704;2023-09-19T08:12:43;16.70;99.90
26703;DHT22;14316;51.074;3.704;2023-09-19T08:15:16;16.90;99.90
26703;DHT22;14316;51.074;3.704;2023-09-19T08:17:43;17.10;99.90
26703;DHT22;14316;51.074;3.704;2023-09-19T08:20:10;17.30;99.90
26703;DHT22;14316;51.074;3.704;2023-09-19T08:22:53;17.40;99.90
26703;DHT22;14316;51.074;3.704;2023-09-19T08:25:22;17.40;99.90
26703;DHT22;14316;51.074;3.704;2023-09-19T08:27:51;17.40;99.90
26703;DHT22;14316;51.074;3.704;2023-09-19T08:30:21;17.40;99.90
26703;DHT22;14316;51.074;3.704;2023-09-19T08:32:59;17.50;99.90
26703;DHT22;14316;51.074;3.704;2023-09-19T08:35:28;17.50;99.90
26703;DHT22;14316;51.074;3.704;2023-09-19T08:37:54;17.50;99.90
26703;DHT22;14316;51.074;3.704;2023-09-19T08:40:23;17.60;99.90
26703;DHT22;14316;51.074;3.704;2023-09-19T08:42:54;17.70;99.90
26703;DHT22;14316;51.074;3.704;2023-09-19T08:45:21;17.80;99.90
26703;DHT22;14316;51.074;3.704;2023-09-19T08:50:29;17.80;99.90
26703;DHT22;14316;51.074;3.704;2023-09-19T08:53:00;18.00;99.90
26703;DHT22;14316;51.074;3.704;2023-09-19T08:55:31;18.00;99.90
26703;DHT22;14316;51.074;3.704;2023-09-19T08:58:03;17.90;99.90
26703;DHT22;14316;51.074;3.704;2023-09-19T09:00:32;18.10;99.90
26703;DHT22;14316;51.074;3.704;2023-09-19T09:02:59;18.10;99.90
26703;DHT22;14316;51.074;3.704;2023-09-19T09:05:27;17.90;99.90
26703;DHT22;14316;51.074;3.704;2023-09-19T09:07:53;17.90;99.90
26703;DHT22;14316;51.074;3.704;2023-09-19T09:10:23;18.00;99.90
26703;DHT22;14316;51.074;3.704;2023-09-19T09:12:52;17.90;99.90
26703;DHT22;14316;51.074;3.704;2023-09-19T09:15:22;17.70;99.90
26703;DHT22;14316;51.074;3.704;2023-09-19T09:17:52;17.70;99.90
26703;DHT22;14316;51.074;3.704;2023-09-19T09:20:21;17.70;99.90
26703;DHT22;14316;51.074;3.704;2023-09-19T09:22:54;17.70;99.90
26703;DHT22;14316;51.074;3.704;2023-09-19T09:25:21;17.80;99.90
26703;DHT22;14316;51.074;3.704;2023-09-19T09:28:01;17.80;99.90
26703;DHT22;14316;51.074;3.704;2023-09-19T09:30:36;17.70;99.90
26703;DHT22;14316;51.074;3.704;2023-09-19T09:33:10;18.00;99.90
26703;DHT22;14316;51.074;3.704;2023-09-19T09:35:55;18.30;99.90
26703;DHT22;14316;51.074;3.704;2023-09-19T09:38:27;18.40;99.90
26703;DHT22;14316;51.074;3.704;2023-09-19T09:40:56;18.40;99.90
26703;DHT22;14316;51.074;3.704;2023-09-19T09:43:43;18.60;99.90
26703;DHT22;14316;51.074;3.704;2023-09-19T09:46:19;18.90;99.90
26703;DHT22;14316;51.074;3.704;2023-09-19T09:51:45;19.30;99.90
26703;DHT22;14316;51.074;3.704;2023-09-19T09:54:24;19.40;99.90
26703;DHT22;14316;51.074;3.704;2023-09-19T09:56:58;19.20;99.90
26703;DHT22;14316;51.074;3.704;2023-09-19T10:02:28;19.90;99.90
26703;DHT22;14316;51.074;3.704;2023-09-19T10:04:56;20.30;99.90
26703;DHT22;14316;51.074;3.704;2023-09-19T10:07:32;20.30;99.90
26703;DHT22;14316;51.074;3.704;2023-09-19T10:10:05;20.70;99.90
26703;DHT22;14316;51.074;3.704;2023-09-19T10:12:59;20.60;99.90
26703;DHT22;14316;51.074;3.704;2023-09-19T10:15:32;20.40;99.90
26703;DHT22;14316;51.074;3.704;2023-09-19T10:18:01;20.20;99.90
26703;DHT22;14316;51.074;3.704;2023-09-19T10:20:30;20.10;99.90
26703;DHT22;14316;51.074;3.704;2023-09-19T10:23:05;20.10;99.90
26703;DHT22;14316;51.074;3.704;2023-09-19T10:25:37;20.20;99.90
26703;DHT22;14316;51.074;3.704;2023-09-19T10:28:09;20.00;99.90
26703;DHT22;14316;51.074;3.704;2023-09-19T10:30:43;20.40;99.90
26703;DHT22;14316;51.074;3.704;2023-09-19T10:33:11;20.60;99.90
26703;DHT22;14316;51.074;3.704;2023-09-19T10:35:42;20.70;99.90
26703;DHT22;14316;51.074;3.704;2023-09-19T10:38:10;20.90;99.90
26703;DHT22;14316;51.074;3.704;2023-09-19T10:40:38;21.10;99.90
26703;DHT22;14316;51.074;3.704;2023-09-19T10:43:12;21.10;99.90
26703;DHT22;14316;51.074;3.704;2023-09-19T10:45:39;21.20;99.90
26703;DHT22;14316;51.074;3.704;2023-09-19T10:48:07;21.20;99.90
26703;DHT22;14316;51.074;3.704;2023-09-19T10:51:09;21.00;99.90
26703;DHT22;14316;51.074;3.704;2023-09-19T10:53:55;20.90;99.90
26703;DHT22;14316;51.074;3.704;2023-09-19T10:56:30;21.30;99.90
26703;DHT22;14316;51.074;3.704;2023-09-19T10:59:07;21.70;99.90
26703;DHT22;14316;51.074;3.704;2023-09-19T11:01:51;21.60;99.90
26703;DHT22;14316;51.074;3.704;2023-09-19T11:07:10;20.70;99.90
26703;DHT22;14316;51.074;3.704;2023-09-19T11:15:02;20.20;99.90
26703;DHT22;14316;51.074;3.704;2023-09-19T11:17:42;20.70;99.90
26703;DHT22;14316;51.074;3.704;2023-09-19T11:30:38;21.10;99.90
26703;DHT22;14316;51.074;3.704;2023-09-19T11:33:20;20.60;99.90
26703;DHT22;14316;51.074;3.704;2023-09-19T11:49:31;20.60;99.90
26703;DHT22;14316;51.074;3.704;2023-09-19T11:52:04;20.50;99.90
26703;DHT22;14316;51.074;3.704;2023-09-19T11:54:35;20.60;99.90
26703;DHT22;14316;51.074;3.704;2023-09-19T11:57:03;20.60;99.90
26703;DHT22;14316;51.074;3.704;2023-09-19T11:59:30;21.20;99.90
26703;DHT22;14316;51.074;3.704;2023-09-19T12:02:07;22.10;99.90
26703;DHT22;14316;51.074;3.704;2023-09-19T12:04:41;22.70;99.90
26703;DHT22;14316;51.074;3.704;2023-09-19T12:07:10;22.90;99.90
26703;DHT22;14316;51.074;3.704;2023-09-19T12:10:02;23.20;99.90
26703;DHT22;14316;51.074;3.704;2023-09-19T12:12:28;22.70;99.90
26703;DHT22;14316;51.074;3.704;2023-09-19T12:14:55;22.00;99.90
26703;DHT22;14316;51.074;3.704;2023-09-19T12:17:37;22.20;99.90
26703;DHT22;14316;51.074;3.704;2023-09-19T12:20:05;21.50;99.90
26703;DHT22;14316;51.074;3.704;2023-09-19T12:25:09;20.80;99.90
26703;DHT22;14316;51.074;3.704;2023-09-19T12:27:47;20.80;99.90
26703;DHT22;14316;51.074;3.704;2023-09-19T12:30:17;21.10;99.90
26703;DHT22;14316;51.074;3.704;2023-09-19T12:32:45;21.20;99.90
26703;DHT22;14316;51.074;3.704;2023-09-19T12:35:27;21.30;99.90
26703;DHT22;14316;51.074;3.704;2023-09-19T12:37:54;21.40;99.90
26703;DHT22;14316;51.074;3.704;2023-09-19T12:40:21;21.40;99.90
26703;DHT22;14316;51.074;3.704;2023-09-19T12:42:49;21.30;99.90
26703;DHT22;14316;51.074;3.704;2023-09-19T12:45:15;20.80;99.90
26703;DHT22;14316;51.074;3.704;2023-09-19T12:48:18;20.40;99.90
26703;DHT22;14316;51.074;3.704;2023-09-19T12:51:09;20.40;99.90
26703;DHT22;14316;51.074;3.704;2023-09-19T12:53:45;20.50;99.90
26703;DHT22;14316;51.074;3.704;2023-09-19T12:56:15;20.20;99.90
26703;DHT22;14316;51.074;3.704;2023-09-19T12:58:57;20.10;99.90
26703;DHT22;14316;51.074;3.704;2023-09-19T13:01:28;20.00;99.90
26703;DHT22;14316;51.074;3.704;2023-09-19T13:04:17;20.00;99.90
26703;DHT22;14316;51.074;3.704;2023-09-19T13:06:52;20.10;99.90
26703;DHT22;14316;51.074;3.704;2023-09-19T13:09:22;20.40;99.90
26703;DHT22;14316;51.074;3.704;2023-09-19T13:11:54;20.60;99.90
26703;DHT22;14316;51.074;3.704;2023-09-19T13:14:22;20.60;99.90
26703;DHT22;14316;51.074;3.704;2023-09-19T13:17:03;20.70;99.90
26703;DHT22;14316;51.074;3.704;2023-09-19T13:22:02;21.10;99.90
26703;DHT22;14316;51.074;3.704;2023-09-19T13:24:29;20.90;99.90
26703;DHT22;14316;51.074;3.704;2023-09-19T13:26:56;21.00;99.90
26703;DHT22;14316;51.074;3.704;2023-09-19T13:29:23;21.50;99.90
26703;DHT22;14316;51.074;3.704;2023-09-19T13:31:50;21.40;99.90
26703;DHT22;14316;51.074;3.704;2023-09-19T13:34:17;21.80;99.90
26703;DHT22;14316;51.074;3.704;2023-09-19T13:36:44;22.00;99.90
26703;DHT22;14316;51.074;3.704;2023-09-19T13:39:10;21.30;99.90
26703;DHT22;14316;51.074;3.704;2023-09-19T13:41:39;21.00;99.90
26703;DHT22;14316;51.074;3.704;2023-09-19T13:44:05;20.50;99.90
26703;DHT22;14316;51.074;3.704;2023-09-19T13:46:31;20.20;99.90
26703;DHT22;14316;51.074;3.704;2023-09-19T13:48:59;20.10;99.90
26703;DHT22;14316;51.074;3.704;2023-09-19T13:51:31;19.90;99.90
26703;DHT22;14316;51.074;3.704;2023-09-19T13:53:58;19.70;99.90
26703;DHT22;14316;51.074;3.704;2023-09-19T13:56:27;19.70;99.90
26703;DHT22;14316;51.074;3.704;2023-09-19T13:58:54;19.70;99.90
26703;DHT22;14316;51.074;3.704;2023-09-19T14:01:20;19.80;99.90
26703;DHT22;14316;51.074;3.704;2023-09-19T14:03:46;19.90;99.90
26703;DHT22;14316;51.074;3.704;2023-09-19T14:06:15;20.00;99.90
26703;DHT22;14316;51.074;3.704;2023-09-19T14:08:42;20.00;99.90
26703;DHT22;14316;51.074;3.704;2023-09-19T14:11:08;19.90;99.90
26703;DHT22;14316;51.074;3.704;2023-09-19T14:13:35;19.80;99.90
26703;DHT22;14316;51.074;3.704;2023-09-19T14:16:04;19.80;99.90
26703;DHT22;14316;51.074;3.704;2023-09-19T14:18:31;19.60;99.90
26703;DHT22;14316;51.074;3.704;2023-09-19T14:20:57;19.60;99.90
26703;DHT22;14316;51.074;3.704;2023-09-19T14:23:23;19.60;99.90
26703;DHT22;14316;51.074;3.704;2023-09-19T14:25:53;19.50;99.90
26703;DHT22;14316;51.074;3.704;2023-09-19T14:28:19;19.60;99.90
26703;DHT22;14316;51.074;3.704;2023-09-19T14:30:45;19.50;99.90
26703;DHT22;14316;51.074;3.704;2023-09-19T14:33:12;19.50;99.90
26703;DHT22;14316;51.074;3.704;2023-09-19T14:35:38;19.60;99.90
26703;DHT22;14316;51.074;3.704;2023-09-19T14:38:04;19.50;99.90
26703;DHT22;14316;51.074;3.704;2023-09-19T14:40:30;19.50;99.90
26703;DHT22;14316;51.074;3.704;2023-09-19T14:42:57;19.50;99.90
26703;DHT22;14316;51.074;3.704;2023-09-19T14:45:23;19.40;99.90
26703;DHT22;14316;51.074;3.704;2023-09-19T14:47:51;19.40;99.90
26703;DHT22;14316;51.074;3.704;2023-09-19T14:50:21;19.50;99.90
26703;DHT22;14316;51.074;3.704;2023-09-19T14:52:48;19.40;99.90
26703;DHT22;14316;51.074;3.704;2023-09-19T14:55:17;19.40;99.90
26703;DHT22;14316;51.074;3.704;2023-09-19T14:57:49;19.30;99.90
26703;DHT22;14316;51.074;3.704;2023-09-19T15:00:17;19.40;99.90
26703;DHT22;14316;51.074;3.704;2023-09-19T15:02:46;19.30;99.90
26703;DHT22;14316;51.074;3.704;2023-09-19T15:05:13;19.40;99.90
26703;DHT22;14316;51.074;3.704;2023-09-19T15:07:41;19.40;99.90
26703;DHT22;14316;51.074;3.704;2023-09-19T15:10:07;19.40;99.90
26703;DHT22;14316;51.074;3.704;2023-09-19T15:12:36;19.30;99.90
26703;DHT22;14316;51.074;3.704;2023-09-19T15:15:04;19.30;99.90
26703;DHT22;14316;51.074;3.704;2023-09-19T15:17:35;19.20;99.90
26703;DHT22;14316;51.074;3.704;2023-09-19T15:20:02;19.10;99.90
26703;DHT22;14316;51.074;3.704;2023-09-19T15:22:28;19.10;99.90
26703;DHT22;14316;51.074;3.704;2023-09-19T15:24:54;19.10;99.90
26703;DHT22;14316;51.074;3.704;2023-09-19T15:27:22;19.10;99.90
26703;DHT22;14316;51.074;3.704;2023-09-19T15:29:47;19.10;99.90
26703;DHT22;14316;51.074;3.704;2023-09-19T15:32:14;19.10;99.90
26703;DHT22;14316;51.074;3.704;2023-09-19T15:34:40;19.10;99.90
26703;DHT22;14316;51.074;3.704;2023-09-19T15:37:06;19.10;99.90
26703;DHT22;14316;51.074;3.704;2023-09-19T15:39:32;19.00;99.90
26703;DHT22;14316;51.074;3.704;2023-09-19T15:42:02;19.10;99.90
26703;DHT22;14316;51.074;3.704;2023-09-19T15:44:29;19.00;99.90
26703;DHT22;14316;51.074;3.704;2023-09-19T15:46:54;19.00;99.90
26703;DHT22;14316;51.074;3.704;2023-09-19T15:49:20;19.00;99.90
26703;DHT22;14316;51.074;3.704;2023-09-19T15:51:48;19.00;99.90
26703;DHT22;14316;51.074;3.704;2023-09-19T15:54:15;19.10;99.90
26703;DHT22;14316;51.074;3.704;2023-09-19T15:56:45;19.10;99.90
26703;DHT22;14316;51.074;3.704;2023-09-19T15:59:12;19.00;99.90
26703;DHT22;14316;51.074;3.704;2023-09-19T16:01:39;18.90;99.90
26703;DHT22;14316;51.074;3.704;2023-09-19T16:04:06;18.60;99.90
26703;DHT22;14316;51.074;3.704;2023-09-19T16:06:35;18.40;99.90
26703;DHT22;14316;51.074;3.704;2023-09-19T16:09:01;18.40;99.90
26703;DHT22;14316;51.074;3.704;2023-09-19T16:11:32;18.50;99.90
26703;DHT22;14316;51.074;3.704;2023-09-19T16:13:58;18.60;99.90
26703;DHT22;14316;51.074;3.704;2023-09-19T16:16:27;18.50;99.90
26703;DHT22;14316;51.074;3.704;2023-09-19T16:18:57;18.50;99.90
26703;DHT22;14316;51.074;3.704;2023-09-19T16:21:27;18.40;99.90
26703;DHT22;14316;51.074;3.704;2023-09-19T16:23:55;18.00;99.90
26703;DHT22;14316;51.074;3.704;2023-09-19T16:26:21;17.60;99.90
26703;DHT22;14316;51.074;3.704;2023-09-19T16:28:54;17.40;99.90
26703;DHT22;14316;51.074;3.704;2023-09-19T16:31:21;17.30;99.90
26703;DHT22;14316;51.074;3.704;2023-09-19T16:33:48;17.20;99.90
26703;DHT22;14316;51.074;3.704;2023-09-19T16:36:19;17.10;99.90
26703;DHT22;14316;51.074;3.704;2023-09-19T16:38:46;17.00;99.90
26703;DHT22;14316;51.074;3.704;2023-09-19T16:41:18;16.90;99.90
26703;DHT22;14316;51.074;3.704;2023-09-19T16:43:44;16.90;99.90
26703;DHT22;14316;51.074;3.704;2023-09-19T16:46:12;16.90;99.90